Terminal Aerodrome Forecast
Issued by NWS

Home | Current Version | Previous Version | Text Only | Print | Product List | Glossary On
Versions: 1 2 3 4 5 6 7 8 9 10 11 12 13 14 15 16 17
000
FTUS41 KGYX 162322
TAFAUG
TAF
KAUG 162322Z 1700/1724 VRB03KT P6SM SCT120
     FM170200 00000KT P6SM SKC
     FM170600 29002KT 1/2SM FG SCT250
     FM170900 30002KT 1/4SM FG SKC
     FM171200 31003KT P6SM SKC
     FM171800 VRB03KT P6SM BKN100 BKN250=

USA.gov is the U.S. government's official web portal to all federal, state and local government web resources and services.